Time;durP1;ratioP1;P1;durP2;ratioP2;P2;SDS_P1;SDS_P2;PMS_P1;PMS_P2;Temp;Humidity;BMP_temperature;BMP_pressure;BME280_temperature;BME280_humidity;BME280_pressure;Samples;Min_cycle;Max_cycle;Signal;HPM_P1;HPM_P2
2022/08/15 00:00:54;;;;;;;5.80;5.28;;;;;;;19.11;100.00;100055.13;21045960;28;20058;-79
2022/08/15 00:11:02;;;;;;;5.82;5.30;;;;;;;19.42;100.00;100103.91;21049643;28;20436;-79
2022/08/15 00:21:21;;;;;;;;;;;;;;;19.59;100.00;100113.91;21013875;28;20576;-79
2022/08/15 00:31:23;;;;;;;5.65;5.15;;;;;;;19.28;100.00;100064.09;21022964;28;19931;-79
2022/08/15 00:41:42;;;;;;;6.70;5.97;;;;;;;19.56;100.00;100094.31;21042013;28;20052;-79
2022/08/15 00:51:54;;;;;;;6.72;6.13;;;;;;;19.56;100.00;100078.13;21036816;28;20465;-79
2022/08/15 01:01:57;;;;;;;6.53;5.88;;;;;;;19.21;100.00;100026.13;21054136;28;20040;-79
2022/08/15 01:12:08;;;;;;;7.03;6.32;;;;;;;19.55;100.00;100071.03;21059741;28;20101;-79
2022/08/15 01:22:25;;;;;;;5.95;5.35;;;;;;;19.55;100.00;100070.19;21025350;28;20101;-79
2022/08/15 01:32:27;;;;;;;6.57;5.88;;;;;;;19.55;100.00;100081.84;21057555;28;20052;-79
2022/08/15 01:42:34;;;;;;;6.85;6.15;;;;;;;19.55;100.00;100062.09;21037682;28;20116;-79
2022/08/15 01:52:56;;;;;;;6.70;6.00;;;;;;;19.54;100.00;100058.56;21055054;28;20101;-79
2022/08/15 02:03:19;;;;;;;6.82;6.13;;;;;;;19.37;100.00;100037.94;21027527;28;20051;-79
2022/08/15 02:13:26;;;;;;;6.65;6.05;;;;;;;19.53;100.00;100043.38;21051831;28;20044;-79
2022/08/15 02:23:28;;;;;;;6.78;6.13;;;;;;;19.53;100.00;100048.75;21030425;28;20504;-79
2022/08/15 02:33:31;;;;;;;7.00;6.30;;;;;;;19.44;100.00;100025.44;21036335;28;20043;-79
2022/08/15 02:43:43;;;;;;;6.63;5.97;;;;;;;19.47;100.00;100018.88;21033509;28;20058;-79
2022/08/15 02:53:48;;;;;;;6.60;5.97;;;;;;;19.52;100.00;100032.72;21033270;28;20044;-79
2022/08/15 03:03:54;;;;;;;6.57;5.97;;;;;;;19.51;100.00;100021.09;21032718;28;20052;-79
2022/08/15 03:13:59;;;;;;;6.78;6.18;;;;;;;19.51;100.00;100026.50;21044168;28;20040;-79
2022/08/15 03:24:04;;;;;;;6.60;6.00;;;;;;;19.51;100.00;100020.25;21038218;28;20488;-79
2022/08/15 03:34:06;;;;;;;6.82;6.13;;;;;;;19.50;100.00;100008.59;21046618;28;20123;-79
2022/08/15 03:44:09;;;;;;;6.88;6.18;;;;;;;19.49;100.00;100004.22;21028351;28;20532;-79
2022/08/15 03:54:27;;;;;;;7.10;6.40;;;;;;;19.49;100.00;99996.13;21044352;28;20496;-79
2022/08/15 04:04:31;;;;;;;6.95;6.35;;;;;;;19.49;100.00;99989.88;21027037;28;20056;-79
2022/08/15 04:14:33;;;;;;;6.43;5.78;;;;;;;19.49;100.00;99976.38;21018789;28;20048;-79
2022/08/15 04:24:46;;;;;;;6.35;5.75;;;;;;;19.48;100.00;99993.59;20958590;28;20071;-79
2022/08/15 04:34:51;;;;;;;7.30;6.43;;;;;;;19.48;100.00;99999.84;20958233;28;20075;-79
2022/08/15 04:44:53;;;;;;;6.70;6.10;;;;;;;19.47;100.00;99997.28;20957748;28;20272;-79
2022/08/15 04:54:58;;;;;;;7.25;6.63;;;;;;;19.34;100.00;99973.50;20952834;28;20119;-79
2022/08/15 05:05:10;;;;;;;6.93;6.22;;;;;;;19.46;100.00;99991.06;20935862;28;20048;-79
2022/08/15 05:15:15;;;;;;;7.28;6.57;;;;;;;19.47;100.00;99991.91;20896615;28;20045;-79
2022/08/15 05:25:20;;;;;;;8.38;7.57;;;;;;;19.46;100.00;99991.06;20893840;28;20048;-79
2022/08/15 05:35:25;;;;;;;7.05;6.35;;;;;;;19.48;100.00;99986.34;20870660;28;20509;-79
2022/08/15 05:45:36;;;;;;;8.07;6.55;;;;;;;19.41;100.00;99977.22;20917824;28;20040;-79
2022/08/15 05:55:53;;;;;;;9.93;8.93;;;;;;;19.51;100.00;99988.69;20908898;28;20048;-78
2022/08/15 06:05:59;;;;;;;11.38;9.85;;;;;;;19.17;100.00;99940.28;20928795;28;20052;-78
2022/08/15 06:16:12;;;;;;;15.45;11.52;;;;;;;19.52;100.00;99984.13;20949003;28;20067;-78
2022/08/15 06:26:52;;;;;;;12.90;11.13;;;;;;;19.51;100.00;99980.59;20923517;28;20052;-78
2022/08/15 06:37:05;;;;;;;11.07;9.93;;;;;;;19.53;100.00;99978.56;20932679;28;20045;-80
2022/08/15 06:47:12;;;;;;;12.82;11.32;;;;;;;19.37;100.00;99960.53;20904500;28;20037;-79
2022/08/15 06:57:27;;;;;;;11.75;10.55;;;;;;;19.56;100.00;99996.28;20864582;28;20619;-77
2022/08/15 07:07:40;;;;;;;11.32;9.85;;;;;;;19.62;100.00;99983.97;20869634;28;20052;-78
2022/08/15 07:17:49;;;;;;;12.82;9.48;;;;;;;19.42;100.00;99960.00;20863012;28;20052;-78
2022/08/15 07:28:01;;;;;;;10.90;9.75;;;;;;;19.58;100.00;99985.31;20880373;28;20417;-78
2022/08/15 07:38:06;;;;;;;12.65;9.07;;;;;;;19.71;100.00;99994.59;20865819;28;20048;-79
2022/08/15 07:48:31;;;;;;;9.77;8.40;;;;;;;19.76;100.00;100001.34;20886749;28;20758;-78
2022/08/15 07:58:42;;;;;;;8.60;7.80;;;;;;;19.70;100.00;99997.44;20886738;28;20489;-79
2022/08/15 08:08:57;;;;;;;9.33;8.43;;;;;;;19.74;100.00;100009.59;20886809;28;20056;-78
2022/08/15 08:19:22;;;;;;;10.73;8.30;;;;;;;19.66;100.00;99994.22;20877623;28;20053;-79
2022/08/15 08:29:27;;;;;;;9.70;8.68;;;;;;;19.84;100.00;100015.66;20882316;28;20559;-79
2022/08/15 08:39:50;;;;;;;9.25;7.40;;;;;;;19.91;100.00;100004.22;20865481;28;20049;-81
2022/08/15 08:50:15;;;;;;;8.82;7.80;;;;;;;19.95;100.00;100013.66;20884943;28;20504;-78
2022/08/15 09:00:43;;;;;;;8.30;7.40;;;;;;;19.98;100.00;100021.44;20884925;28;20067;-78
2022/08/15 09:10:49;;;;;;;7.65;6.90;;;;;;;19.99;100.00;100020.41;20891675;28;20052;-77
2022/08/15 09:20:51;;;;;;;8.70;7.00;;;;;;;19.75;100.00;99980.75;20885879;28;20087;-77
2022/08/15 09:30:54;;;;;;;7.72;6.93;;;;;;;19.99;100.00;100044.72;20894150;28;20056;-77
2022/08/15 09:41:42;;;;;;;7.43;6.73;;;;;;;19.94;100.00;100036.28;20896750;28;20056;-78
2022/08/15 09:52:26;;;;;;;9.15;6.78;;;;;;;19.91;100.00;100036.63;20752140;28;20053;-77
2022/08/15 10:02:36;;;;;;;7.95;6.80;;;;;;;19.80;100.00;100025.13;20880462;28;20410;-78
2022/08/15 10:13:06;;;;;;;7.97;6.63;;;;;;;19.85;100.00;100047.06;20887262;28;20048;-79
2022/08/15 10:23:13;;;;;;;7.20;6.50;;;;;;;19.84;100.00;100075.06;20891313;28;20198;-78
2022/08/15 10:33:24;;;;;;;8.75;6.63;;;;;;;19.82;100.00;100065.47;20904965;28;20056;-78
2022/08/15 10:43:52;;;;;;;7.25;6.55;;;;;;;19.74;100.00;100042.00;20900058;28;20453;-78
2022/08/15 10:54:16;;;;;;;7.32;6.60;;;;;;;19.50;100.00;100007.75;20910833;28;20049;-79
2022/08/15 11:04:31;;;;;;;7.32;6.40;;;;;;;19.81;100.00;100063.78;20894471;28;20052;-78
2022/08/15 11:14:56;;;;;;;7.15;6.47;;;;;;;19.80;100.00;100052.13;20891738;28;20055;-78
2022/08/15 11:25:00;;;;;;;;;;;;;;;19.79;100.00;100045.03;20909599;28;20404;-78
2022/08/15 11:35:07;;;;;;;7.60;6.80;;;;;;;19.61;100.00;100018.22;20902194;28;19924;-77
2022/08/15 11:45:16;;;;;;;8.10;6.85;;;;;;;19.70;100.00;100033.41;20870892;28;20083;-78
2022/08/15 11:55:25;;;;;;;7.38;6.68;;;;;;;19.78;100.00;100048.75;20881793;28;20045;-78
2022/08/15 12:05:33;;;;;;;7.93;7.17;;;;;;;19.80;100.00;100056.69;20888672;28;20063;-77
2022/08/15 12:15:55;;;;;;;7.15;6.20;;;;;;;19.79;100.00;100063.94;20895322;28;20550;-78
2022/08/15 12:26:05;;;;;;;7.20;6.50;;;;;;;19.79;100.00;100049.59;20875075;28;20063;-79
2022/08/15 12:36:29;;;;;;;8.25;7.45;;;;;;;19.79;100.00;100050.44;20889527;28;20052;-80
2022/08/15 12:46:51;;;;;;;7.38;6.68;;;;;;;19.39;100.00;99990.88;20898409;28;20136;-80
2022/08/15 12:56:53;;;;;;;7.95;7.15;;;;;;;19.77;100.00;100057.88;20892377;28;20053;-79
2022/08/15 13:07:13;;;;;;;7.40;6.43;;;;;;;19.76;100.00;100061.56;20921599;28;20409;-80
2022/08/15 13:17:15;;;;;;;7.90;7.15;;;;;;;19.70;100.00;100052.31;20928604;28;20492;-81
2022/08/15 13:27:37;;;;;;;7.60;6.90;;;;;;;19.54;100.00;100047.75;20908515;28;20520;-79
2022/08/15 13:37:39;;;;;;;9.68;8.68;;;;;;;19.60;100.00;100034.59;20916035;28;20055;-80
2022/08/15 13:48:01;;;;;;;10.35;8.50;;;;;;;19.82;100.00;100055.50;20905222;28;20504;-80
2022/08/15 13:58:16;;;;;;;8.63;7.72;;;;;;;19.65;100.00;100008.75;20892889;28;20044;-81
2022/08/15 14:08:21;;;;;;;8.70;7.80;;;;;;;19.89;100.00;100049.44;20886795;28;20061;-81
2022/08/15 14:18:30;;;;;;;7.88;7.07;;;;;;;19.90;100.00;100054.69;20871306;28;20069;-81
2022/08/15 14:28:53;;;;;;;8.93;8.07;;;;;;;19.93;100.00;100050.81;20882856;28;20128;-78
2022/08/15 14:39:16;;;;;;;9.15;7.38;;;;;;;19.98;100.00;100053.84;20875759;28;20049;-79
2022/08/15 14:49:18;;;;;;;7.88;6.95;;;;;;;20.03;100.00;100050.63;20906464;28;20048;-79
2022/08/15 14:59:39;;;;;;;7.65;6.95;;;;;;;20.06;100.00;100052.97;20897937;28;20057;-80
2022/08/15 15:10:01;;;;;;;7.18;6.47;;;;;;;20.05;100.00;100049.44;20875295;28;20060;-79
2022/08/15 15:20:08;;;;;;;8.13;7.20;;;;;;;20.01;100.00;100048.09;20883910;28;20053;-80
2022/08/15 15:30:19;;;;;;;8.00;6.30;;;;;;;19.86;100.00;100037.94;20886972;28;20133;-80
2022/08/15 15:40:23;;;;;;;7.60;6.90;;;;;;;19.91;100.00;100061.78;20879589;28;20056;-78
2022/08/15 15:50:26;;;;;;;7.03;6.43;;;;;;;19.88;100.00;100070.19;20872689;28;20099;-79
2022/08/15 16:00:31;;;;;;;7.35;6.22;;;;;;;19.84;100.00;100074.25;20885398;28;20060;-80
2022/08/15 16:10:43;;;;;;;7.00;6.30;;;;;;;19.75;100.00;100065.28;20875842;28;20883;-79
2022/08/15 16:20:50;;;;;;;7.00;6.40;;;;;;;19.80;100.00;100081.00;20874439;28;20059;-80
2022/08/15 16:31:13;;;;;;;7.38;6.60;;;;;;;19.71;100.00;100075.59;20899426;28;20595;-81
2022/08/15 16:41:31;;;;;;;6.78;5.93;;;;;;;19.77;100.00;100097.53;20885337;28;20497;-79
2022/08/15 16:52:06;;;;;;;6.65;6.03;;;;;;;19.75;100.00;100086.91;20882710;28;20122;-79
2022/08/15 17:02:54;;;;;;;6.70;6.10;;;;;;;19.73;100.00;100112.41;20905580;28;20048;-79
2022/08/15 17:13:40;;;;;;;5.78;5.28;;;;;;;19.71;100.00;100120.66;20918939;28;20064;-79
2022/08/15 17:24:02;;;;;;;6.25;5.68;;;;;;;19.70;100.00;100132.47;20906789;28;20052;-80
2022/08/15 17:34:28;;;;;;;5.97;5.47;;;;;;;19.63;100.00;100117.94;20907746;28;20642;-79
2022/08/15 17:45:05;;;;;;;5.97;5.38;;;;;;;19.41;100.00;100085.16;20917653;28;22044;-80
2022/08/15 17:55:32;;;;;;;6.03;5.43;;;;;;;19.70;100.00;100137.88;20962987;28;20068;-80
2022/08/15 18:05:54;;;;;;;6.07;5.47;;;;;;;19.48;100.00;100113.22;20970182;28;20060;-80
2022/08/15 18:16:08;;;;;;;5.70;5.20;;;;;;;19.71;100.00;100144.97;20969670;28;20044;-80
2022/08/15 18:26:24;;;;;;;;;;;;;;;19.70;100.00;100138.72;20970742;28;20057;-80
2022/08/15 18:36:50;;;;;;;6.20;5.60;;;;;;;19.69;100.00;100152.38;20968098;28;19920;-80
2022/08/15 18:47:00;;;;;;;5.82;5.32;;;;;;;19.41;100.00;100117.56;20951147;28;20048;-79
2022/08/15 18:57:11;;;;;;;6.03;5.43;;;;;;;19.69;100.00;100180.25;20950407;28;20040;-80
2022/08/15 19:07:17;;;;;;;5.88;5.38;;;;;;;19.69;100.00;100192.88;20949028;28;20048;-80
2022/08/15 19:17:28;;;;;;;5.60;5.10;;;;;;;19.69;100.00;100203.69;20943633;28;20845;-80
2022/08/15 19:27:46;;;;;;;5.50;5.00;;;;;;;19.69;100.00;100217.19;20920284;28;20179;-79
2022/08/15 19:38:29;;;;;;;6.05;4.97;;;;;;;19.68;100.00;100220.91;20905746;28;20056;-80
2022/08/15 19:48:38;;;;;;;5.60;5.10;;;;;;;19.67;100.00;100235.41;20923444;28;20563;-80
2022/08/15 19:58:49;;;;;;;5.60;5.10;;;;;;;19.46;100.00;100228.63;20948696;28;20056;-80
2022/08/15 20:08:58;;;;;;;5.50;4.93;;;;;;;19.66;100.00;100239.94;20958538;28;20067;-80
2022/08/15 20:19:06;;;;;;;5.43;4.95;;;;;;;19.56;100.00;100240.13;20934714;28;20048;-80
2022/08/15 20:29:20;;;;;;;5.40;4.90;;;;;;;19.67;100.00;100246.22;20938691;28;20055;-80
2022/08/15 20:39:35;;;;;;;5.32;4.82;;;;;;;19.65;100.00;100250.94;20932153;28;20137;-80
2022/08/15 20:49:45;;;;;;;5.60;5.10;;;;;;;19.65;100.00;100248.25;20916762;28;20394;-80
2022/08/15 20:59:46;;;;;;;5.30;4.80;;;;;;;19.63;100.00;100259.19;20947419;28;20071;-80
2022/08/15 21:10:03;;;;;;;5.07;4.60;;;;;;;19.54;100.00;100241.28;20934158;28;20516;-80
2022/08/15 21:20:20;;;;;;;6.25;5.13;;;;;;;19.62;100.00;100265.59;20949221;28;20557;-80
2022/08/15 21:30:36;;;;;;;5.10;4.70;;;;;;;19.63;100.00;100277.25;20973222;28;20052;-80
2022/08/15 21:40:58;;;;;;;5.07;4.68;;;;;;;19.62;100.00;100271.00;20959058;28;20101;-80
2022/08/15 21:51:29;;;;;;;5.78;5.25;;;;;;;19.61;100.00;100271.19;20951173;28;20051;-80
2022/08/15 22:01:52;;;;;;;5.13;4.63;;;;;;;19.52;100.00;100260.34;20946436;28;20378;-80
2022/08/15 22:12:10;;;;;;;5.55;5.05;;;;;;;19.31;100.00;100231.06;20958678;28;20040;-80
2022/08/15 22:22:15;;;;;;;5.45;4.95;;;;;;;19.60;100.00;100273.00;20959014;28;20136;-80
2022/08/15 22:32:22;;;;;;;5.32;4.90;;;;;;;19.59;100.00;100268.63;20945397;28;20063;-80
2022/08/15 22:42:40;;;;;;;5.25;4.75;;;;;;;19.60;100.00;100277.59;20943659;28;20041;-80
2022/08/15 22:52:44;;;;;;;5.40;4.90;;;;;;;19.60;100.00;100288.38;20987201;28;20151;-80
2022/08/15 23:02:47;;;;;;;5.72;5.22;;;;;;;19.39;100.00;100258.09;20939100;28;20447;-80
2022/08/15 23:12:52;;;;;;;5.67;5.17;;;;;;;19.59;100.00;100282.13;20932642;28;20045;-80
2022/08/15 23:22:54;;;;;;;5.65;5.15;;;;;;;19.14;100.00;100197.78;20948382;28;20067;-80
2022/08/15 23:33:00;;;;;;;6.22;5.70;;;;;;;19.58;100.00;100285.00;20932634;28;20122;-80
2022/08/15 23:43:04;;;;;;;5.53;5.03;;;;;;;19.57;100.00;100278.75;20946464;28;20044;-80
2022/08/15 23:53:08;;;;;;;5.10;4.70;;;;;;;19.57;100.00;100273.34;20943679;28;20048;-80
